Time;durP1;ratioP1;P1;durP2;ratioP2;P2;SDS_P1;SDS_P2;PMS_P1;PMS_P2;Temp;Humidity;BMP_temperature;BMP_pressure;BME280_temperature;BME280_humidity;BME280_pressure;Samples;Min_cycle;Max_cycle;Signal;HPM_P1;HPM_P2
2022/08/15 00:00:43;;;;;;;6.00;3.00;;;25.10;78.40;;;;;;5111853;28;20019;-69
2022/08/15 00:03:28;;;;;;;3.80;3.08;;;25.20;78.60;;;;;;5111902;28;20081;-68
2022/08/15 00:06:00;;;;;;;5.30;2.60;;;25.20;78.60;;;;;;5113389;28;20024;-68
2022/08/15 00:08:27;;;;;;;4.40;2.75;;;25.00;78.80;;;;;;5112198;28;20034;-68
2022/08/15 00:10:56;;;;;;;4.93;2.97;;;25.00;79.00;;;;;;5113537;28;20054;-67
2022/08/15 00:13:28;;;;;;;6.55;3.08;;;25.10;78.90;;;;;;5113748;28;20051;-67
2022/08/15 00:15:55;;;;;;;5.88;2.70;;;25.00;79.30;;;;;;5113797;28;20092;-67
2022/08/15 00:18:23;;;;;;;4.70;2.10;;;25.10;79.20;;;;;;5113260;28;20038;-67
2022/08/15 00:20:49;;;;;;;3.92;2.80;;;25.20;79.10;;;;;;5113389;28;20073;-68
2022/08/15 00:23:17;;;;;;;;;;;25.10;79.10;;;;;;5114025;28;20464;-68
2022/08/15 00:25:46;;;;;;;4.35;2.72;;;25.00;79.20;;;;;;5113105;28;19904;-68
2022/08/15 00:28:12;;;;;;;6.05;2.60;;;25.00;79.50;;;;;;5117186;28;20391;-69
2022/08/15 00:30:41;;;;;;;;;;;24.90;79.60;;;;;;5119131;28;20028;-68
2022/08/15 00:33:07;;;;;;;4.47;2.75;;;24.90;79.80;;;;;;5117589;28;20387;-68
2022/08/15 00:35:36;;;;;;;;;;;24.90;79.70;;;;;;5117663;28;20039;-68
2022/08/15 00:38:05;;;;;;;6.68;2.92;;;24.90;79.90;;;;;;5116045;28;20399;-68
2022/08/15 00:41:39;;;;;;;6.10;2.80;;;24.90;79.80;;;;;;5117047;28;20023;-68
2022/08/15 00:43:18;;;;;;;4.43;2.55;;;24.90;79.90;;;;;;5116843;28;20510;-68
2022/08/15 00:45:44;;;;;;;4.88;2.97;;;24.80;80.00;;;;;;5116740;28;20541;-68
2022/08/15 00:50:54;;;;;;;4.05;2.60;;;24.80;79.90;;;;;;5116974;28;20038;-68
2022/08/15 00:53:19;;;;;;;;;;;24.90;79.90;;;;;;5117357;28;20016;-68
2022/08/15 00:55:46;;;;;;;5.43;3.00;;;24.90;80.10;;;;;;5115761;28;19903;-69
2022/08/15 00:58:12;;;;;;;5.43;2.70;;;24.90;80.20;;;;;;5117337;28;20027;-68
2022/08/15 01:00:39;;;;;;;;;;;24.90;80.50;;;;;;5117323;28;20490;-68
2022/08/15 01:03:11;;;;;;;4.22;2.53;;;24.80;81.00;;;;;;5115570;28;19964;-68
2022/08/15 01:05:36;;;;;;;5.25;2.85;;;24.70;81.40;;;;;;5116649;28;20099;-68
2022/08/15 01:08:02;;;;;;;;;;;24.70;81.90;;;;;;5116475;28;20070;-68
2022/08/15 01:10:28;;;;;;;7.18;2.95;;;24.60;82.50;;;;;;5118732;28;19904;-68
2022/08/15 01:12:54;;;;;;;;;;;24.60;83.10;;;;;;5117399;28;20084;-68
2022/08/15 01:15:21;;;;;;;5.63;3.03;;;24.60;83.50;;;;;;5116679;28;19904;-68
2022/08/15 01:17:47;;;;;;;7.03;2.67;;;24.50;83.80;;;;;;5116624;28;20047;-68
2022/08/15 01:20:15;;;;;;;;;;;24.50;84.40;;;;;;5117089;28;20051;-67
2022/08/15 01:22:47;;;;;;;5.18;2.72;;;24.50;84.70;;;;;;5115119;28;20359;-69
2022/08/15 01:25:20;;;;;;;5.32;2.28;;;24.40;85.20;;;;;;5114737;28;20508;-69
2022/08/15 01:28:00;;;;;;;4.50;2.47;;;24.40;85.80;;;;;;5116345;28;20027;-69
2022/08/15 01:30:31;;;;;;;5.85;2.60;;;24.40;86.30;;;;;;5114986;28;20023;-68
2022/08/15 01:32:58;;;;;;;5.53;2.47;;;24.30;86.80;;;;;;5116270;27;20380;-69
2022/08/15 01:35:26;;;;;;;7.80;2.90;;;24.40;87.10;;;;;;5126512;22;20043;-66
2022/08/15 01:37:52;;;;;;;6.38;2.85;;;24.40;87.60;;;;;;5095956;28;20444;-67
2022/08/15 01:40:36;;;;;;;;;;;24.30;88.10;;;;;;5096794;28;20464;-65
2022/08/15 01:43:03;;;;;;;5.82;3.03;;;24.30;89.10;;;;;;5096015;28;19950;-67
2022/08/15 01:45:30;;;;;;;4.72;2.53;;;24.20;90.70;;;;;;5095919;28;20031;-67
2022/08/15 01:48:02;;;;;;;5.25;2.80;;;24.20;90.80;;;;;;5096070;28;20020;-67
2022/08/15 01:50:31;;;;;;;4.03;2.70;;;24.00;91.40;;;;;;5094515;28;20034;-67
2022/08/15 01:53:17;;;;;;;7.10;3.22;;;24.00;92.10;;;;;;5095622;28;20024;-67
2022/08/15 01:55:55;;;;;;;6.03;2.40;;;23.90;92.80;;;;;;5094204;28;20024;-66
2022/08/15 01:58:22;;;;;;;6.95;3.17;;;23.80;92.90;;;;;;5095409;28;20111;-66
2022/08/15 02:01:06;;;;;;;6.93;2.50;;;23.80;93.20;;;;;;5095648;28;20031;-67
2022/08/15 02:03:35;;;;;;;6.07;2.72;;;23.70;93.50;;;;;;5095821;28;20097;-66
2022/08/15 02:06:04;;;;;;;3.30;2.40;;;23.70;94.10;;;;;;5094182;28;20031;-66
2022/08/15 02:08:30;;;;;;;9.13;2.95;;;23.70;94.10;;;;;;5095413;28;20028;-66
2022/08/15 02:10:56;;;;;;;4.28;2.40;;;23.70;94.20;;;;;;5095781;28;20108;-65
2022/08/15 02:13:22;;;;;;;;;;;23.70;94.30;;;;;;5096061;28;20434;-67
2022/08/15 02:15:48;;;;;;;8.07;2.40;;;23.70;94.50;;;;;;5095395;28;19946;-66
2022/08/15 02:18:13;;;;;;;;;;;23.60;95.00;;;;;;5095920;28;20024;-66
2022/08/15 02:20:39;;;;;;;6.43;3.05;;;23.60;95.10;;;;;;5095261;28;19911;-66
2022/08/15 02:23:05;;;;;;;6.68;2.20;;;23.60;95.40;;;;;;5095169;28;20480;-65
2022/08/15 02:25:30;;;;;;;;;;;23.60;95.60;;;;;;5095801;28;20154;-66
2022/08/15 02:27:56;;;;;;;5.03;2.33;;;23.50;95.80;;;;;;5094047;28;19904;-67
2022/08/15 02:30:25;;;;;;;5.55;2.63;;;23.40;96.30;;;;;;5095124;28;20032;-66
2022/08/15 02:32:50;;;;;;;4.93;2.40;;;23.30;96.80;;;;;;5095339;28;20024;-66
2022/08/15 02:35:16;;;;;;;5.32;2.13;;;23.20;97.90;;;;;;5096617;28;20404;-65
2022/08/15 02:37:44;;;;;;;7.00;2.28;;;23.10;98.20;;;;;;5097289;28;20105;-66
2022/08/15 02:40:12;;;;;;;6.50;2.47;;;22.90;99.10;;;;;;5095769;28;20024;-65
2022/08/15 02:42:38;;;;;;;4.28;2.20;;;22.60;99.90;;;;;;5096919;28;20153;-65
2022/08/15 02:45:10;;;;;;;;;;;22.50;99.90;;;;;;5096603;28;20100;-65
2022/08/15 02:47:37;;;;;;;4.82;2.00;;;22.30;99.90;;;;;;5096161;28;19950;-66
2022/08/15 02:50:05;;;;;;;4.07;2.22;;;22.30;99.90;;;;;;5093465;28;20028;-66
2022/08/15 02:52:31;;;;;;;4.78;1.95;;;22.30;99.90;;;;;;5095114;28;20432;-66
2022/08/15 02:54:58;;;;;;;3.85;1.98;;;22.20;99.90;;;;;;5093839;28;20085;-66
2022/08/15 02:57:24;;;;;;;7.18;2.13;;;22.20;99.90;;;;;;5093701;28;20132;-66
2022/08/15 02:59:49;;;;;;;2.28;1.60;;;22.10;99.90;;;;;;5095487;28;20162;-66
2022/08/15 03:02:15;;;;;;;3.38;2.25;;;22.20;99.90;;;;;;5093896;28;20056;-66
2022/08/15 03:04:40;;;;;;;2.65;2.00;;;22.20;99.90;;;;;;5095350;28;20119;-66
2022/08/15 03:07:06;;;;;;;4.97;2.17;;;22.10;99.90;;;;;;5095924;28;20084;-66
2022/08/15 03:09:31;;;;;;;3.17;1.95;;;22.00;99.90;;;;;;5095569;28;20028;-66
2022/08/15 03:11:57;;;;;;;5.18;2.25;;;21.90;99.90;;;;;;5094903;28;20050;-66
2022/08/15 03:14:24;;;;;;;3.50;2.20;;;21.80;99.90;;;;;;5095123;28;20024;-67
2022/08/15 03:16:50;;;;;;;2.85;2.10;;;21.80;99.90;;;;;;5093341;28;20056;-66
2022/08/15 03:19:22;;;;;;;4.57;1.80;;;21.80;99.90;;;;;;5094178;28;20056;-66
2022/08/15 03:21:48;;;;;;;4.75;2.10;;;21.80;99.90;;;;;;5094089;28;20020;-66
2022/08/15 03:24:15;;;;;;;3.80;1.92;;;21.80;99.90;;;;;;5094054;28;20024;-66
2022/08/15 03:26:46;;;;;;;3.83;2.00;;;21.80;99.90;;;;;;5094176;28;20016;-66
2022/08/15 03:29:15;;;;;;;2.70;1.85;;;21.80;99.90;;;;;;5094571;28;20544;-66
2022/08/15 03:31:42;;;;;;;6.10;1.88;;;21.70;99.90;;;;;;5092936;28;20456;-66
2022/08/15 03:34:07;;;;;;;5.05;2.20;;;21.60;99.90;;;;;;5094633;28;20474;-66
2022/08/15 03:36:33;;;;;;;3.03;1.85;;;21.70;99.90;;;;;;5092943;28;20086;-66
2022/08/15 03:38:59;;;;;;;4.65;1.80;;;21.60;99.90;;;;;;5094065;28;20071;-66
2022/08/15 03:41:25;;;;;;;3.17;2.30;;;21.60;99.90;;;;;;5094068;28;20110;-66
2022/08/15 03:43:51;;;;;;;3.25;2.17;;;21.60;99.90;;;;;;5093881;28;20085;-66
2022/08/15 03:46:21;;;;;;;4.80;1.90;;;21.60;99.90;;;;;;5092828;28;20535;-66
2022/08/15 03:48:50;;;;;;;3.13;1.95;;;21.60;99.90;;;;;;5094574;28;20107;-65
2022/08/15 03:51:18;;;;;;;3.83;1.90;;;21.50;99.90;;;;;;5093829;28;20024;-66
2022/08/15 03:53:51;;;;;;;4.80;2.28;;;21.50;99.90;;;;;;5093763;28;20027;-67
2022/08/15 03:56:20;;;;;;;3.47;2.22;;;21.50;99.90;;;;;;5094193;28;20028;-67
2022/08/15 03:58:46;;;;;;;5.68;2.20;;;21.50;99.90;;;;;;5093777;28;20032;-66
2022/08/15 04:01:17;;;;;;;4.57;2.47;;;21.50;99.90;;;;;;5093601;28;20024;-66
2022/08/15 04:03:45;;;;;;;4.97;2.45;;;21.50;99.90;;;;;;5092128;28;20026;-67
2022/08/15 04:06:13;;;;;;;2.72;2.28;;;21.50;99.90;;;;;;5093341;28;20020;-66
2022/08/15 04:08:39;;;;;;;2.20;2.00;;;21.50;99.90;;;;;;5093460;28;20032;-66
2022/08/15 04:11:07;;;;;;;4.95;2.25;;;21.60;99.90;;;;;;5096147;28;20375;-65
2022/08/15 04:13:34;;;;;;;2.92;1.83;;;21.50;99.90;;;;;;5094987;28;20069;-66
2022/08/15 04:16:01;;;;;;;5.07;2.20;;;21.60;99.90;;;;;;5100185;28;20024;-66
2022/08/15 04:18:28;;;;;;;3.38;2.38;;;21.60;99.90;;;;;;5099376;28;20115;-66
2022/08/15 04:20:56;;;;;;;3.05;2.33;;;21.70;99.90;;;;;;5098448;28;20020;-66
2022/08/15 04:23:22;;;;;;;3.55;1.90;;;21.70;99.90;;;;;;5098769;28;20032;-66
2022/08/15 04:25:48;;;;;;;4.38;1.92;;;21.70;99.90;;;;;;5096058;28;20020;-67
2022/08/15 04:28:15;;;;;;;4.38;2.17;;;21.70;99.90;;;;;;5092594;28;20020;-66
2022/08/15 04:30:43;;;;;;;5.97;2.00;;;21.70;99.90;;;;;;5093155;28;20388;-66
2022/08/15 04:33:15;;;;;;;3.65;2.58;;;21.70;99.90;;;;;;5093365;28;20077;-65
2022/08/15 04:35:46;;;;;;;3.22;2.13;;;21.80;99.90;;;;;;5091696;28;20043;-65
2022/08/15 04:38:13;;;;;;;2.95;2.30;;;21.80;99.90;;;;;;5093299;28;20024;-66
2022/08/15 04:40:39;;;;;;;5.70;2.17;;;21.80;99.90;;;;;;5091960;28;20020;-66
2022/08/15 04:43:05;;;;;;;3.83;2.13;;;21.70;99.90;;;;;;5093203;28;20012;-65
2022/08/15 04:45:32;;;;;;;;;;;21.70;99.90;;;;;;5093429;28;20024;-67
2022/08/15 04:48:02;;;;;;;3.25;2.38;;;21.80;99.90;;;;;;5091672;28;19912;-66
2022/08/15 04:50:30;;;;;;;3.53;2.25;;;21.80;99.90;;;;;;5091648;28;20028;-65
2022/08/15 04:52:57;;;;;;;5.80;2.70;;;21.70;99.90;;;;;;5093001;28;20099;-66
2022/08/15 04:55:24;;;;;;;5.43;2.30;;;21.80;99.90;;;;;;5092729;28;20559;-66
2022/08/15 04:57:51;;;;;;;3.55;2.03;;;21.70;99.90;;;;;;5093236;28;20032;-66
2022/08/15 05:00:20;;;;;;;5.18;2.25;;;21.70;99.90;;;;;;5092867;28;20027;-66
2022/08/15 05:02:57;;;;;;;3.42;1.95;;;21.60;99.90;;;;;;5093148;28;20106;-66
2022/08/15 05:05:23;;;;;;;5.85;1.70;;;21.60;99.90;;;;;;5091735;28;20023;-65
2022/08/15 05:07:49;;;;;;;;;;;21.70;99.90;;;;;;5093442;28;20025;-65
2022/08/15 05:10:15;;;;;;;5.00;1.70;;;21.70;99.90;;;;;;5091510;28;20280;-67
2022/08/15 05:12:40;;;;;;;3.03;1.77;;;21.80;99.90;;;;;;5094004;28;20104;-67
2022/08/15 05:15:07;;;;;;;2.95;2.17;;;21.70;99.90;;;;;;5096736;28;20107;-66
2022/08/15 05:17:33;;;;;;;5.57;1.67;;;21.80;99.90;;;;;;5096556;28;20085;-66
2022/08/15 05:19:58;;;;;;;4.78;2.17;;;21.90;99.90;;;;;;5097158;28;20423;-65
2022/08/15 05:22:24;;;;;;;4.22;1.60;;;21.90;99.90;;;;;;5095770;28;20365;-67
2022/08/15 05:24:49;;;;;;;3.78;1.70;;;22.00;99.90;;;;;;5095097;28;20020;-67
2022/08/15 05:27:16;;;;;;;3.95;2.13;;;22.10;99.90;;;;;;5095490;28;20044;-67
2022/08/15 05:29:42;;;;;;;4.03;2.10;;;22.10;99.90;;;;;;5096553;28;20437;-67
2022/08/15 05:32:09;;;;;;;2.20;1.65;;;22.20;99.90;;;;;;5095904;28;20036;-67
2022/08/15 05:34:34;;;;;;;4.18;1.95;;;22.20;99.90;;;;;;5096602;28;20024;-67
2022/08/15 05:37:03;;;;;;;4.72;2.00;;;22.30;99.90;;;;;;5095847;28;20126;-67
2022/08/15 05:39:30;;;;;;;6.72;2.50;;;22.10;99.90;;;;;;5096641;28;20436;-66
2022/08/15 05:42:19;;;;;;;4.43;2.13;;;22.10;99.90;;;;;;5096497;28;20055;-67
2022/08/15 05:44:47;;;;;;;2.95;1.70;;;22.20;99.90;;;;;;5094897;28;20070;-66
2022/08/15 05:47:20;;;;;;;3.33;1.98;;;22.30;99.90;;;;;;5096042;28;20024;-68
2022/08/15 05:49:59;;;;;;;4.28;2.25;;;22.50;99.90;;;;;;5096415;28;20027;-69
2022/08/15 05:52:35;;;;;;;3.65;1.90;;;22.70;99.90;;;;;;5094874;28;20020;-69
2022/08/15 05:55:12;;;;;;;4.57;1.90;;;22.60;99.90;;;;;;5096061;28;20024;-67
2022/08/15 05:57:50;;;;;;;3.20;1.60;;;22.50;99.90;;;;;;5095821;28;20020;-68
2022/08/15 06:00:16;;;;;;;4.63;1.75;;;22.50;99.90;;;;;;5096047;28;20035;-68
2022/08/15 06:02:50;;;;;;;;;;;22.60;99.90;;;;;;5094981;28;20088;-68
2022/08/15 06:05:38;;;;;;;2.35;1.75;;;22.60;99.90;;;;;;5096029;28;20364;-69
2022/08/15 06:08:26;;;;;;;2.55;1.70;;;22.50;99.90;;;;;;5095742;28;20032;-69
2022/08/15 06:10:54;;;;;;;4.07;1.90;;;22.40;99.90;;;;;;5095435;28;20329;-70
2022/08/15 06:13:28;;;;;;;4.82;2.10;;;22.30;99.90;;;;;;5093860;28;20081;-70
2022/08/15 06:15:58;;;;;;;5.82;1.85;;;22.30;99.90;;;;;;5096323;28;20456;-69
2022/08/15 06:18:25;;;;;;;4.80;2.10;;;22.10;99.90;;;;;;5095556;28;20081;-70
2022/08/15 06:20:58;;;;;;;2.92;2.00;;;22.10;99.90;;;;;;5094486;28;20491;-70
2022/08/15 06:23:57;;;;;;;4.32;1.92;;;22.10;99.90;;;;;;5094125;28;20035;-69
2022/08/15 06:26:56;;;;;;;6.85;2.20;;;22.30;99.90;;;;;;5095278;28;20031;-68
2022/08/15 06:30:22;;;;;;;3.50;1.60;;;22.30;99.90;;;;;;5095653;28;20419;-69
2022/08/15 06:33:02;;;;;;;2.30;1.70;;;22.30;99.90;;;;;;5013900;28;20037;-69
2022/08/15 06:35:54;;;;;;;5.38;1.92;;;22.50;99.90;;;;;;5013291;28;20045;-69
2022/08/15 06:38:38;;;;;;;4.22;1.80;;;22.30;99.90;;;;;;5013595;28;20582;-69
2022/08/15 06:41:33;;;;;;;2.83;1.80;;;22.20;99.90;;;;;;4997295;28;20491;-69
2022/08/15 06:43:59;;;;;;;2.50;2.00;;;22.20;99.90;;;;;;5013526;28;20113;-69
2022/08/15 06:46:33;;;;;;;3.35;2.35;;;22.30;99.90;;;;;;5013092;28;20110;-69
2022/08/15 06:49:03;;;;;;;4.38;1.80;;;22.30;99.90;;;;;;5013353;28;20065;-69
2022/08/15 06:51:32;;;;;;;2.92;1.70;;;22.30;99.90;;;;;;5013376;28;20045;-68
2022/08/15 06:53:59;;;;;;;3.58;2.05;;;22.10;99.90;;;;;;5012981;28;20470;-70
2022/08/15 06:56:33;;;;;;;2.50;1.70;;;22.30;99.90;;;;;;5013267;28;20446;-70
2022/08/15 06:59:18;;;;;;;5.20;2.25;;;22.30;99.90;;;;;;5013559;28;20033;-69
2022/08/15 07:02:09;;;;;;;4.07;1.80;;;22.20;99.90;;;;;;5013917;28;20033;-70
2022/08/15 07:05:04;;;;;;;3.05;1.92;;;22.00;99.90;;;;;;5089728;28;20040;-70
2022/08/15 07:07:54;;;;;;;2.92;1.80;;;21.80;99.90;;;;;;5065296;28;20062;-69
2022/08/15 07:10:31;;;;;;;6.47;2.13;;;21.80;99.90;;;;;;5096133;28;20027;-69
2022/08/15 07:13:12;;;;;;;3.65;2.00;;;21.70;99.90;;;;;;5094880;28;20043;-69
2022/08/15 07:15:47;;;;;;;4.47;1.92;;;21.70;99.90;;;;;;5096705;28;20100;-69
2022/08/15 07:18:23;;;;;;;3.60;2.28;;;21.80;99.90;;;;;;5099417;28;20024;-70
2022/08/15 07:20:50;;;;;;;2.80;2.05;;;21.60;99.90;;;;;;5096874;28;20020;-70
2022/08/15 07:23:20;;;;;;;5.45;2.25;;;21.70;99.90;;;;;;5098379;28;20027;-70
2022/08/15 07:25:49;;;;;;;3.85;2.08;;;21.60;99.90;;;;;;5103643;28;20020;-69
2022/08/15 07:28:19;;;;;;;3.45;2.00;;;21.80;99.90;;;;;;5106315;28;20028;-69
2022/08/15 07:30:44;;;;;;;3.10;1.95;;;22.00;99.90;;;;;;5103758;28;20024;-69
2022/08/15 07:33:41;;;;;;;5.22;2.47;;;22.20;99.90;;;;;;5102593;28;20054;-69
2022/08/15 07:36:15;;;;;;;4.10;2.40;;;22.40;99.90;;;;;;5105487;28;20492;-69
2022/08/15 07:38:41;;;;;;;2.70;2.15;;;22.70;99.90;;;;;;5103068;28;20036;-69
2022/08/15 07:41:33;;;;;;;;;;;22.70;99.90;;;;;;5103946;28;20024;-69
2022/08/15 07:44:19;;;;;;;3.97;1.90;;;22.80;99.90;;;;;;5084699;28;19954;-69
2022/08/15 07:47:00;;;;;;;4.25;1.88;;;23.00;99.90;;;;;;5092818;28;20024;-69
2022/08/15 07:49:34;;;;;;;2.38;2.08;;;23.20;99.90;;;;;;5096068;28;20039;-70
2022/08/15 07:52:15;;;;;;;3.97;1.77;;;23.50;99.90;;;;;;5094324;28;20082;-69
2022/08/15 07:54:51;;;;;;;3.95;1.90;;;23.80;99.90;;;;;;5093888;28;20024;-69
2022/08/15 07:57:36;;;;;;;3.67;1.63;;;24.10;99.90;;;;;;5094019;28;20028;-69
2022/08/15 08:00:16;;;;;;;2.50;1.85;;;24.40;99.90;;;;;;5093798;28;20024;-69
2022/08/15 08:02:50;;;;;;;6.40;2.55;;;24.50;99.90;;;;;;5092719;28;20518;-69
2022/08/15 08:05:17;;;;;;;3.75;1.63;;;24.40;99.90;;;;;;5093601;28;20380;-69
2022/08/15 08:07:46;;;;;;;4.10;1.67;;;24.30;99.90;;;;;;5093843;28;20024;-70
2022/08/15 08:10:27;;;;;;;3.00;1.75;;;24.10;99.90;;;;;;5092212;28;20136;-70
2022/08/15 08:13:08;;;;;;;1.88;1.60;;;24.10;99.90;;;;;;5093734;28;20435;-70
2022/08/15 08:15:52;;;;;;;3.95;1.92;;;24.00;99.90;;;;;;5092490;28;20024;-70
2022/08/15 08:19:03;;;;;;;4.55;2.15;;;24.20;99.90;;;;;;5093336;28;20150;-70
2022/08/15 08:21:52;;;;;;;3.63;1.55;;;24.40;99.90;;;;;;5093654;28;20021;-69
2022/08/15 08:24:47;;;;;;;2.63;2.08;;;25.00;99.90;;;;;;5093019;28;20032;-68
2022/08/15 08:27:33;;;;;;;3.22;1.75;;;26.20;99.10;;;;;;5092079;28;20115;-69
2022/08/15 08:30:08;;;;;;;3.27;2.13;;;27.20;96.70;;;;;;5093755;28;20107;-69
2022/08/15 08:32:58;;;;;;;2.90;1.80;;;26.80;96.60;;;;;;5093599;28;20285;-69
2022/08/15 08:35:40;;;;;;;2.80;1.73;;;26.30;97.30;;;;;;5093073;28;20499;-69
2022/08/15 08:38:11;;;;;;;2.95;2.17;;;25.90;98.30;;;;;;5091993;28;20032;-69
2022/08/15 08:44:14;;;;;;;3.22;2.45;;;27.00;97.60;;;;;;5093781;28;20125;-69
2022/08/15 08:46:58;;;;;;;3.42;1.85;;;29.90;91.50;;;;;;5093492;28;20047;-69
2022/08/15 08:49:37;;;;;;;3.25;1.60;;;30.50;87.90;;;;;;5096302;28;20058;-70
2022/08/15 08:52:32;;;;;;;3.30;1.52;;;29.50;88.60;;;;;;5096041;28;20032;-69
2022/08/15 08:55:07;;;;;;;3.42;1.92;;;28.60;90.40;;;;;;5086296;28;20040;-69
2022/08/15 08:57:58;;;;;;;3.15;1.70;;;27.90;91.90;;;;;;5095862;28;20024;-68
2022/08/15 09:00:31;;;;;;;2.65;1.65;;;27.40;92.40;;;;;;5096558;28;20031;-70
2022/08/15 09:03:21;;;;;;;4.93;1.70;;;27.70;92.60;;;;;;5096096;28;20110;-69
2022/08/15 09:05:56;;;;;;;2.15;1.67;;;28.00;91.80;;;;;;5095615;28;20028;-70
2022/08/15 09:08:30;;;;;;;1.95;1.52;;;27.20;92.60;;;;;;5097148;28;20020;-70
2022/08/15 09:11:03;;;;;;;2.35;1.90;;;27.10;93.20;;;;;;5095932;28;20024;-69
2022/08/15 09:13:34;;;;;;;4.72;2.00;;;26.90;93.30;;;;;;5096822;28;20053;-70
2022/08/15 09:16:08;;;;;;;1.70;1.60;;;26.80;93.40;;;;;;5095820;28;20035;-69
2022/08/15 09:18:42;;;;;;;2.30;1.70;;;27.90;92.60;;;;;;5096401;28;20100;-69
2022/08/15 09:21:08;;;;;;;1.92;1.58;;;28.90;91.00;;;;;;5097527;28;20060;-70
2022/08/15 09:23:40;;;;;;;2.95;1.85;;;29.40;89.40;;;;;;5095927;28;20503;-70
2022/08/15 09:26:24;;;;;;;1.77;1.67;;;30.00;88.00;;;;;;5096902;28;20024;-70
2022/08/15 09:29:21;;;;;;;2.83;1.38;;;31.20;83.90;;;;;;5097012;28;20032;-69
2022/08/15 09:32:18;;;;;;;4.05;1.48;;;33.70;77.10;;;;;;5086766;28;20035;-68
2022/08/15 09:35:05;;;;;;;2.92;1.42;;;34.20;73.60;;;;;;5097264;28;20031;-69
2022/08/15 09:38:00;;;;;;;3.13;1.50;;;35.40;69.80;;;;;;5096613;28;20497;-68
2022/08/15 09:40:52;;;;;;;2.45;1.55;;;36.30;67.40;;;;;;5096270;28;20396;-69
2022/08/15 09:43:33;;;;;;;3.92;1.63;;;37.20;65.40;;;;;;5096403;28;20058;-69
2022/08/15 09:46:49;;;;;;;2.25;1.70;;;38.00;63.10;;;;;;5095978;28;20028;-70
2022/08/15 09:49:35;;;;;;;2.20;1.60;;;37.80;62.50;;;;;;5096358;28;20016;-70
2022/08/15 09:52:09;;;;;;;2.25;1.45;;;38.30;60.90;;;;;;5096331;28;20024;-69
2022/08/15 09:54:46;;;;;;;1.40;1.30;;;36.90;61.90;;;;;;5095840;28;20020;-68
2022/08/15 09:57:21;;;;;;;2.38;1.48;;;34.80;64.50;;;;;;5096270;28;20023;-69
2022/08/15 09:59:57;;;;;;;3.23;1.63;;;34.50;65.60;;;;;;5095946;28;20020;-70
2022/08/15 10:02:27;;;;;;;2.53;1.70;;;34.80;65.50;;;;;;5096083;28;20034;-69
2022/08/15 10:04:55;;;;;;;4.82;2.00;;;35.40;64.30;;;;;;5095727;28;20103;-69
2022/08/15 10:07:32;;;;;;;1.63;1.48;;;36.90;62.60;;;;;;5095558;28;20025;-69
2022/08/15 10:10:01;;;;;;;2.35;1.48;;;38.00;61.30;;;;;;5095521;28;20031;-69
2022/08/15 10:12:28;;;;;;;1.92;1.35;;;37.90;59.80;;;;;;5095914;28;20024;-70
2022/08/15 10:14:56;;;;;;;2.00;1.30;;;38.90;58.90;;;;;;5094206;28;20526;-69
2022/08/15 10:17:37;;;;;;;1.67;1.38;;;39.40;58.30;;;;;;5095989;28;20028;-69
2022/08/15 10:20:17;;;;;;;1.98;1.70;;;39.60;57.10;;;;;;5095878;28;20107;-69
2022/08/15 10:23:00;;;;;;;2.35;1.25;;;39.30;57.00;;;;;;5095783;28;20020;-68
2022/08/15 10:25:30;;;;;;;2.70;1.55;;;39.70;56.90;;;;;;5097515;28;20095;-70
2022/08/15 10:28:06;;;;;;;1.58;1.30;;;40.20;56.10;;;;;;5095475;28;20020;-68
2022/08/15 10:30:57;;;;;;;2.42;1.52;;;40.10;55.20;;;;;;5096199;28;20100;-69
2022/08/15 10:33:33;;;;;;;1.88;1.35;;;39.50;55.40;;;;;;5057340;28;20035;-70
2022/08/15 10:36:14;;;;;;;1.77;1.33;;;40.10;55.10;;;;;;5096006;28;20028;-71
2022/08/15 10:38:44;;;;;;;2.30;1.40;;;40.00;55.00;;;;;;5096562;28;20035;-70
2022/08/15 10:41:27;;;;;;;3.53;1.40;;;40.70;54.00;;;;;;5096376;28;20055;-69
2022/08/15 10:44:25;;;;;;;2.22;1.50;;;41.20;53.70;;;;;;5095645;28;20028;-71
2022/08/15 10:47:13;;;;;;;3.20;1.60;;;41.40;53.10;;;;;;5095640;28;20530;-69
2022/08/15 10:49:57;;;;;;;1.77;1.58;;;42.40;52.30;;;;;;5095693;28;20022;-69
2022/08/15 10:52:32;;;;;;;1.98;1.40;;;42.70;51.60;;;;;;5095523;28;20099;-70
2022/08/15 10:55:20;;;;;;;1.40;1.30;;;42.00;51.50;;;;;;5095125;28;20016;-70
2022/08/15 10:57:52;;;;;;;1.67;1.42;;;41.30;52.20;;;;;;5095374;28;20099;-70
2022/08/15 11:00:33;;;;;;;2.03;1.50;;;40.90;52.50;;;;;;5095286;28;20456;-69
2022/08/15 11:03:02;;;;;;;1.70;1.50;;;40.30;53.10;;;;;;5095209;28;20024;-70
2022/08/15 11:05:28;;;;;;;2.88;1.45;;;39.10;54.10;;;;;;5095007;28;20036;-69
2022/08/15 11:07:55;;;;;;;1.70;1.38;;;38.40;54.90;;;;;;5095805;28;20023;-70
2022/08/15 11:10:24;;;;;;;1.77;1.40;;;38.50;54.90;;;;;;5094956;28;20024;-69
2022/08/15 11:12:54;;;;;;;2.75;1.60;;;38.40;54.80;;;;;;5094985;28;20020;-69
2022/08/15 11:15:56;;;;;;;2.85;1.63;;;37.10;55.90;;;;;;5094778;28;20490;-69
2022/08/15 11:18:34;;;;;;;2.25;1.65;;;35.00;58.50;;;;;;5052691;28;20047;-68
2022/08/15 11:21:40;;;;;;;2.30;1.60;;;33.70;60.20;;;;;;5093483;28;20038;-69
2022/08/15 11:24:07;;;;;;;2.38;1.70;;;32.80;61.70;;;;;;5096824;28;20012;-69
2022/08/15 11:26:36;;;;;;;4.78;2.13;;;32.00;63.10;;;;;;5096128;28;20107;-71
2022/08/15 11:29:15;;;;;;;3.92;2.03;;;31.50;63.80;;;;;;5095738;28;20097;-69
2022/08/15 11:31:59;;;;;;;3.13;1.90;;;31.00;64.40;;;;;;5094150;28;20077;-70
2022/08/15 11:34:34;;;;;;;2.65;1.80;;;30.50;65.00;;;;;;5095006;28;20036;-70
2022/08/15 11:37:21;;;;;;;3.83;2.20;;;30.40;65.80;;;;;;5094851;28;20430;-70
2022/08/15 11:40:17;;;;;;;2.88;2.20;;;30.10;66.50;;;;;;5095527;28;20032;-69
2022/08/15 11:42:43;;;;;;;3.78;2.20;;;30.10;66.40;;;;;;5093462;28;20024;-69
2022/08/15 11:45:14;;;;;;;3.08;2.40;;;30.00;66.70;;;;;;5095181;28;20024;-68
2022/08/15 11:47:46;;;;;;;3.70;2.40;;;30.00;67.10;;;;;;5095606;28;20079;-70
2022/08/15 11:50:39;;;;;;;2.95;1.80;;;29.60;67.50;;;;;;5095427;28;20498;-69
2022/08/15 11:53:08;;;;;;;3.63;2.35;;;29.50;67.90;;;;;;5059359;28;20036;-70
2022/08/15 11:55:34;;;;;;;2.72;2.08;;;29.40;68.00;;;;;;5095965;28;20538;-69
2022/08/15 11:58:05;;;;;;;2.58;1.95;;;29.30;68.60;;;;;;5095779;28;20032;-69
2022/08/15 12:00:37;;;;;;;4.25;2.10;;;29.60;68.80;;;;;;5096477;28;20023;-70
2022/08/15 12:03:38;;;;;;;3.30;1.90;;;29.60;68.50;;;;;;5095621;28;20024;-69
2022/08/15 12:06:12;;;;;;;3.15;2.20;;;29.70;68.40;;;;;;4996980;28;20017;-70
2022/08/15 12:08:39;;;;;;;2.83;2.00;;;29.60;68.60;;;;;;5013569;28;20449;-69
2022/08/15 12:11:17;;;;;;;3.50;2.13;;;29.70;67.40;;;;;;4996269;28;20053;-70
2022/08/15 12:14:01;;;;;;;5.72;2.72;;;29.60;67.40;;;;;;5011969;28;20042;-69
2022/08/15 12:16:39;;;;;;;3.28;1.88;;;29.60;67.60;;;;;;5011703;28;20095;-69
2022/08/15 12:19:39;;;;;;;3.42;2.05;;;29.70;67.50;;;;;;5011716;28;20076;-69
2022/08/15 12:22:13;;;;;;;5.13;2.00;;;29.60;67.40;;;;;;5012900;28;20018;-69
2022/08/15 12:24:41;;;;;;;3.10;2.30;;;29.70;67.50;;;;;;4999534;28;20022;-69
2022/08/15 12:27:07;;;;;;;4.55;2.00;;;29.60;67.20;;;;;;5016954;28;20029;-70
2022/08/15 12:29:33;;;;;;;4.88;2.20;;;29.60;67.20;;;;;;5016223;28;20049;-69
2022/08/15 12:32:01;;;;;;;3.15;1.90;;;29.70;67.20;;;;;;5015426;28;20026;-69
2022/08/15 12:34:31;;;;;;;2.20;2.00;;;29.70;67.30;;;;;;4999040;28;20030;-69
2022/08/15 12:37:01;;;;;;;2.28;2.05;;;29.80;67.30;;;;;;5016651;28;20105;-69
2022/08/15 12:39:27;;;;;;;2.97;2.20;;;29.90;66.90;;;;;;5038138;28;20081;-69
2022/08/15 12:41:53;;;;;;;4.60;2.97;;;29.90;66.10;;;;;;5097386;28;20048;-70
2022/08/15 12:44:28;;;;;;;4.20;2.15;;;30.10;65.90;;;;;;5097346;28;20024;-69
2022/08/15 12:46:55;;;;;;;3.55;2.40;;;30.00;66.00;;;;;;5097668;28;20541;-68
2022/08/15 12:49:21;;;;;;;3.35;2.33;;;30.00;66.30;;;;;;5097710;28;20036;-69
2022/08/15 12:51:46;;;;;;;4.18;2.38;;;29.70;66.60;;;;;;5097417;28;20026;-69
2022/08/15 12:54:12;;;;;;;6.82;2.42;;;29.60;66.90;;;;;;5096951;28;20468;-69
2022/08/15 12:56:39;;;;;;;4.53;2.30;;;29.70;67.00;;;;;;5096179;28;20035;-69
2022/08/15 12:59:05;;;;;;;3.30;2.13;;;29.80;66.70;;;;;;5097374;28;20028;-70
2022/08/15 13:01:35;;;;;;;3.35;2.75;;;29.80;66.30;;;;;;5097458;28;20103;-69
2022/08/15 13:04:04;;;;;;;5.72;2.10;;;29.90;66.20;;;;;;5097914;28;20016;-72
2022/08/15 13:06:36;;;;;;;6.07;2.65;;;30.00;66.10;;;;;;5098363;28;20043;-70
2022/08/15 13:09:07;;;;;;;2.55;2.10;;;30.00;66.30;;;;;;5098691;28;20035;-71
2022/08/15 13:11:33;;;;;;;3.53;1.95;;;30.10;66.40;;;;;;5097674;28;20032;-71
2022/08/15 13:14:00;;;;;;;3.35;2.20;;;30.10;66.50;;;;;;5096247;28;20438;-72
2022/08/15 13:16:25;;;;;;;2.83;2.25;;;30.00;66.20;;;;;;5096464;28;20028;-71
2022/08/15 13:18:51;;;;;;;4.95;2.05;;;29.70;66.70;;;;;;5098714;28;20051;-72
2022/08/15 13:24:01;;;;;;;4.05;2.20;;;29.60;67.70;;;;;;5099404;28;20035;-70
2022/08/15 13:26:26;;;;;;;6.97;2.17;;;29.40;69.40;;;;;;5097780;28;20419;-71
2022/08/15 13:28:56;;;;;;;4.63;2.30;;;29.20;70.70;;;;;;5097238;28;20022;-69
2022/08/15 13:31:22;;;;;;;4.22;2.58;;;29.00;71.10;;;;;;5096860;28;20436;-69